createdAt,value
2018-11-02T00:02:01.971Z,75.25
2018-11-02T00:04:30.578Z,75.40
2018-11-02T00:06:59.399Z,75.19
2018-11-02T00:09:27.939Z,75.32
2018-11-02T00:11:56.648Z,75.39
2018-11-02T00:14:26.022Z,75.26
2018-11-02T00:16:54.802Z,75.07
2018-11-02T00:19:38.865Z,75.12
2018-11-02T00:22:07.585Z,74.42
2018-11-02T00:24:36.759Z,74.65
2018-11-02T00:27:05.464Z,74.60
2018-11-02T00:29:34.115Z,74.28
2018-11-02T00:32:03.784Z,74.50
2018-11-02T00:34:32.371Z,74.18
2018-11-02T00:37:00.938Z,74.08
2018-11-02T00:39:29.547Z,74.16
2018-11-02T00:41:58.110Z,74.00
2018-11-02T00:44:26.824Z,74.09
2018-11-02T00:46:55.452Z,74.20
2018-11-02T00:49:24.009Z,74.06
2018-11-02T00:51:52.655Z,74.29
2018-11-02T00:54:21.374Z,74.13
2018-11-02T00:56:50.011Z,74.35
2018-11-02T00:59:18.625Z,74.36
2018-11-02T01:01:47.119Z,74.46
2018-11-02T01:04:15.964Z,74.60
2018-11-02T01:06:44.578Z,74.47
2018-11-02T01:09:13.437Z,74.31
2018-11-02T01:11:42.119Z,74.16
2018-11-02T01:14:10.651Z,74.23
2018-11-02T01:16:39.519Z,74.56
2018-11-02T01:19:08.332Z,74.24
2018-11-02T01:21:37.113Z,74.03
2018-11-02T01:24:06.118Z,74.07
2018-11-02T01:26:34.674Z,74.18
2018-11-02T01:29:03.896Z,74.48
2018-11-02T01:31:32.493Z,74.51
2018-11-02T01:34:02.068Z,74.32
2018-11-02T01:36:30.811Z,74.36
2018-11-02T01:38:59.685Z,74.30
2018-11-02T01:41:28.386Z,74.27
2018-11-02T01:43:57.067Z,74.35
2018-11-02T01:46:25.791Z,74.41
2018-11-02T01:48:54.370Z,74.27
2018-11-02T01:51:22.953Z,74.09
2018-11-02T01:53:52.502Z,74.11
2018-11-02T01:56:21.158Z,74.47
2018-11-02T01:58:49.949Z,74.44
2018-11-02T02:01:18.465Z,74.48
2018-11-02T02:03:47.064Z,74.42
2018-11-02T02:06:15.665Z,74.79
2018-11-02T02:08:44.370Z,74.70
2018-11-02T02:11:12.946Z,74.82
2018-11-02T02:13:41.847Z,74.59
2018-11-02T02:16:10.434Z,74.67
2018-11-02T02:18:39.061Z,74.88
2018-11-02T02:21:07.845Z,74.65
2018-11-02T02:23:36.484Z,74.50
2018-11-02T02:26:05.492Z,74.34
2018-11-02T02:28:34.214Z,74.28
2018-11-02T02:31:03.515Z,74.22
2018-11-02T02:33:32.294Z,74.02
2018-11-02T02:36:00.839Z,74.67
2018-11-02T02:38:29.442Z,74.76
2018-11-02T02:40:58.077Z,74.80
2018-11-02T02:43:26.601Z,74.54
2018-11-02T02:45:55.134Z,74.37
2018-11-02T02:48:23.701Z,74.95
2018-11-02T02:50:52.516Z,75.21
2018-11-02T02:53:21.179Z,75.02
2018-11-02T02:55:49.702Z,74.66
2018-11-02T02:58:18.351Z,75.04
2018-11-02T03:00:47.090Z,74.66
2018-11-02T03:03:15.744Z,75.19
2018-11-02T03:05:44.282Z,75.09
2018-11-02T03:08:12.929Z,74.79
2018-11-02T03:10:41.882Z,74.87
2018-11-02T03:13:10.511Z,74.97
2018-11-02T03:15:39.174Z,75.50
2018-11-02T03:18:07.773Z,75.15
2018-11-02T03:20:36.324Z,74.72
2018-11-02T03:23:05.315Z,74.79
2018-11-02T03:25:33.959Z,75.02
2018-11-02T03:28:02.881Z,75.33
2018-11-02T03:30:31.607Z,74.89
2018-11-02T03:33:00.279Z,75.43
2018-11-02T03:35:28.915Z,74.76
2018-11-02T03:37:57.504Z,74.76
2018-11-02T03:40:26.253Z,75.06
2018-11-02T03:42:54.995Z,74.95
2018-11-02T03:45:23.607Z,75.11
2018-11-02T03:47:52.292Z,75.21
2018-11-02T03:50:21.358Z,75.22
2018-11-02T03:52:50.047Z,75.37
2018-11-02T03:55:18.611Z,75.24
2018-11-02T03:57:47.298Z,75.10
2018-11-02T04:00:15.905Z,75.32
2018-11-02T04:02:44.509Z,75.35
2018-11-02T04:05:13.158Z,75.11
2018-11-02T04:07:41.960Z,75.25
2018-11-02T04:10:11.571Z,75.16
2018-11-02T04:12:40.826Z,74.65
2018-11-02T04:15:09.818Z,75.29
2018-11-02T04:17:38.501Z,75.11
2018-11-02T04:20:08.526Z,74.91
2018-11-02T04:22:37.020Z,74.48
2018-11-02T04:25:06.214Z,74.78
2018-11-02T04:27:34.830Z,74.45
2018-11-02T04:30:03.989Z,74.69
2018-11-02T04:32:32.594Z,74.36
2018-11-02T04:35:01.849Z,74.42
2018-11-02T04:37:30.371Z,74.42
2018-11-02T04:39:59.081Z,74.34
2018-11-02T04:42:27.742Z,73.99
2018-11-02T04:44:56.476Z,73.87
2018-11-02T04:47:25.159Z,73.97
2018-11-02T04:49:53.752Z,73.93
2018-11-02T04:52:22.374Z,74.18
2018-11-02T04:54:51.066Z,73.50
2018-11-02T04:57:19.713Z,73.83
2018-11-02T04:59:48.334Z,73.89
2018-11-02T05:02:17.105Z,74.00
2018-11-02T05:04:45.722Z,74.08
2018-11-02T05:07:14.245Z,74.47
2018-11-02T05:09:43.524Z,75.09
2018-11-02T05:12:12.119Z,74.04
2018-11-02T05:14:40.752Z,73.49
2018-11-02T05:17:09.506Z,73.00
2018-11-02T05:19:38.070Z,73.48
2018-11-02T05:22:06.760Z,73.61
2018-11-02T05:24:35.409Z,73.53
2018-11-02T05:27:05.049Z,73.32
2018-11-02T05:29:33.682Z,73.75
2018-11-02T05:32:02.680Z,73.95
2018-11-02T05:34:31.365Z,73.93
2018-11-02T05:37:00.102Z,74.39
2018-11-02T05:39:28.685Z,74.35
2018-11-02T05:41:57.205Z,74.58
2018-11-02T05:44:26.500Z,74.41
2018-11-02T05:46:55.094Z,74.45
2018-11-02T05:49:23.675Z,74.61
2018-11-02T05:51:52.258Z,74.83
2018-11-02T05:54:20.919Z,74.92
2018-11-02T05:56:49.479Z,74.79
2018-11-02T05:59:17.973Z,74.99
2018-11-02T06:01:46.674Z,75.33
2018-11-02T06:04:15.163Z,75.21
2018-11-02T06:06:43.721Z,75.30
2018-11-02T06:09:12.468Z,75.11
2018-11-02T06:11:41.065Z,74.47
2018-11-02T06:14:09.703Z,74.63
2018-11-02T06:16:38.352Z,74.39
2018-11-02T06:19:07.107Z,74.48
2018-11-02T06:21:35.794Z,74.48
2018-11-02T06:24:04.806Z,73.89
2018-11-02T06:26:33.378Z,74.08
2018-11-02T06:29:02.902Z,74.00
2018-11-02T06:31:31.513Z,74.01
2018-11-02T06:34:00.119Z,73.78
2018-11-02T06:36:28.698Z,73.22
2018-11-02T06:38:57.409Z,73.24
2018-11-02T06:41:26.679Z,73.05
2018-11-02T06:43:55.258Z,72.54
2018-11-02T06:46:23.823Z,72.69
2018-11-02T06:48:52.410Z,72.56
2018-11-02T06:51:21.032Z,72.77
2018-11-02T06:53:49.690Z,72.84
2018-11-02T06:56:18.307Z,72.46
2018-11-02T06:58:46.891Z,72.47
2018-11-02T07:01:15.483Z,71.99
2018-11-02T07:03:44.196Z,71.92
2018-11-02T07:06:12.780Z,71.95
2018-11-02T07:08:41.446Z,72.10
2018-11-02T07:11:09.880Z,71.03
2018-11-02T07:13:38.567Z,71.26
2018-11-02T07:16:07.175Z,71.17
2018-11-02T07:18:35.947Z,71.12
2018-11-02T07:21:04.644Z,71.31
2018-11-02T07:23:33.299Z,70.95
2018-11-02T07:26:01.977Z,70.57
2018-11-02T07:28:30.672Z,70.58
2018-11-02T07:30:59.274Z,69.47
2018-11-02T07:33:27.914Z,69.86
2018-11-02T07:35:56.430Z,69.55
2018-11-02T07:38:25.127Z,69.46
2018-11-02T07:40:53.671Z,69.36
2018-11-02T07:43:22.401Z,69.38
2018-11-02T07:45:51.060Z,69.31
2018-11-02T07:48:20.095Z,68.70
2018-11-02T07:50:48.718Z,68.86
2018-11-02T07:53:17.282Z,68.99
2018-11-02T07:55:45.959Z,68.77
2018-11-02T07:58:14.588Z,68.70
2018-11-02T08:00:43.177Z,68.99
2018-11-02T08:03:12.851Z,69.17
2018-11-02T08:05:41.518Z,68.77
2018-11-02T08:08:10.200Z,68.51
2018-11-02T08:10:38.947Z,68.49
2018-11-02T08:13:07.692Z,68.56
2018-11-02T08:15:36.424Z,68.30
2018-11-02T08:18:05.072Z,68.04
2018-11-02T08:20:34.062Z,67.87
2018-11-02T08:23:02.728Z,68.58
2018-11-02T08:25:31.401Z,68.08
2018-11-02T08:28:00.190Z,68.36
2018-11-02T08:30:28.911Z,68.63
2018-11-02T08:32:57.601Z,68.42
2018-11-02T08:35:26.901Z,68.82
2018-11-02T08:37:55.513Z,68.88
2018-11-02T08:40:24.334Z,69.14
2018-11-02T08:42:53.040Z,69.70
2018-11-02T08:45:22.864Z,69.11
2018-11-02T08:47:52.415Z,69.83
2018-11-02T08:50:21.289Z,70.23
2018-11-02T08:52:49.977Z,70.09
2018-11-02T08:55:20.045Z,70.19
2018-11-02T08:57:48.776Z,70.19
2018-11-02T09:00:17.813Z,69.98
2018-11-02T09:02:46.464Z,70.27
2018-11-02T09:05:15.258Z,70.08
2018-11-02T09:07:44.046Z,70.14
2018-11-02T09:10:13.120Z,70.21
2018-11-02T09:12:41.829Z,70.17
2018-11-02T09:15:10.583Z,70.18
2018-11-02T09:17:39.328Z,70.21
2018-11-02T09:20:08.086Z,70.75
2018-11-02T09:22:36.833Z,70.82
2018-11-02T09:30:13.383Z,70.93
2018-11-02T09:32:42.048Z,71.01
2018-11-02T09:35:10.689Z,71.09
2018-11-02T09:37:39.386Z,71.34
2018-11-02T09:40:09.349Z,71.32
2018-11-02T09:42:38.174Z,71.71
2018-11-02T09:45:08.480Z,71.27
2018-11-02T09:47:37.177Z,71.38
2018-11-02T09:50:06.488Z,71.84
2018-11-02T09:52:35.683Z,71.94
2018-11-02T09:55:04.331Z,71.65
2018-11-02T09:57:33.010Z,71.51
2018-11-02T10:00:01.704Z,71.56
2018-11-02T10:02:30.306Z,71.19
2018-11-02T10:04:59.007Z,71.17
2018-11-02T10:07:27.877Z,71.17
2018-11-02T10:09:56.563Z,71.19
2018-11-02T10:12:25.274Z,71.38
2018-11-02T10:14:54.012Z,70.56
2018-11-02T10:17:22.665Z,70.49
2018-11-02T10:19:51.346Z,70.37
2018-11-02T10:22:20.031Z,70.53
2018-11-02T10:24:48.559Z,70.06
2018-11-02T10:27:17.238Z,69.56
2018-11-02T10:29:45.977Z,69.73
2018-11-02T10:32:14.611Z,70.00
2018-11-02T10:34:43.495Z,70.85
2018-11-02T10:37:12.445Z,69.19
2018-11-02T10:39:41.455Z,69.55
2018-11-02T10:42:10.803Z,68.78
2018-11-02T10:44:43.271Z,69.34
2018-11-02T10:47:12.105Z,69.60
2018-11-02T10:49:41.105Z,69.22
2018-11-02T10:52:09.818Z,70.39
2018-11-02T10:54:38.728Z,69.17
2018-11-02T10:57:07.279Z,68.94
2018-11-02T10:59:35.929Z,68.54
2018-11-02T11:02:08.803Z,68.09
2018-11-02T11:04:38.141Z,68.18
2018-11-02T11:07:07.141Z,67.81
2018-11-02T11:09:35.729Z,67.75
2018-11-02T11:12:05.064Z,67.95
2018-11-02T11:14:33.650Z,67.72
2018-11-02T11:17:02.328Z,67.78
2018-11-02T11:19:30.922Z,67.74
2018-11-02T11:21:59.615Z,68.05
2018-11-02T11:24:28.206Z,67.72
2018-11-02T11:26:56.964Z,67.54
2018-11-02T11:29:25.665Z,67.68
2018-11-02T11:31:54.235Z,67.37
2018-11-02T11:34:22.967Z,67.54
2018-11-02T11:36:51.774Z,67.38
2018-11-02T11:39:20.424Z,67.84
2018-11-02T11:41:48.994Z,67.60
2018-11-02T11:44:17.682Z,67.95
2018-11-02T11:46:46.319Z,76.41
2018-11-02T11:49:15.373Z,72.88
2018-11-02T11:51:43.902Z,70.88
2018-11-02T11:54:12.595Z,66.40
2018-11-02T11:56:41.252Z,67.64
2018-11-02T11:59:10.278Z,64.98
2018-11-02T12:01:38.889Z,65.67
2018-11-02T12:04:07.474Z,65.93
2018-11-02T12:06:36.239Z,66.01
2018-11-02T12:09:06.806Z,65.94
2018-11-02T12:11:35.522Z,66.20
2018-11-02T12:14:04.293Z,65.37
2018-11-02T12:16:33.033Z,65.77
2018-11-02T12:19:01.844Z,65.25
2018-11-02T12:21:30.620Z,65.25
2018-11-02T12:23:59.344Z,64.65
2018-11-02T12:27:57.572Z,64.34
2018-11-02T12:30:26.542Z,64.34
2018-11-02T12:32:55.194Z,64.22
2018-11-02T12:35:23.932Z,63.77
2018-11-02T12:37:52.705Z,63.88
2018-11-02T12:40:22.553Z,63.81
2018-11-02T12:42:52.382Z,63.15
2018-11-02T12:45:21.923Z,62.71
2018-11-02T12:47:50.723Z,62.76
2018-11-02T12:50:21.788Z,63.36
2018-11-02T12:52:51.739Z,62.78
2018-11-02T12:55:21.078Z,63.28
2018-11-02T12:57:49.753Z,63.53
2018-11-02T13:00:20.240Z,63.42
2018-11-02T13:02:49.546Z,62.98
2018-11-02T13:05:18.643Z,62.78
2018-11-02T13:07:47.829Z,63.04
2018-11-02T13:10:23.780Z,62.69
2018-11-02T13:12:52.409Z,62.16
2018-11-02T13:15:22.426Z,62.37
2018-11-02T13:17:51.537Z,61.88
2018-11-02T13:20:20.683Z,61.48
2018-11-02T13:22:50.213Z,61.53
2018-11-02T13:25:20.119Z,61.66
2018-11-02T13:27:49.783Z,61.18
2018-11-02T13:30:18.758Z,61.47
2018-11-02T13:32:47.653Z,60.99
2018-11-02T13:35:17.791Z,60.87
2018-11-02T13:37:47.320Z,60.87
2018-11-02T13:40:17.183Z,61.16
2018-11-02T13:42:46.158Z,61.11
2018-11-02T13:45:16.010Z,61.24
2018-11-02T13:47:44.983Z,61.58
2018-11-02T13:50:14.232Z,61.23
2018-11-02T13:52:44.333Z,61.62
2018-11-02T13:55:13.589Z,61.63
2018-11-02T13:57:42.266Z,61.49
2018-11-02T14:00:13.256Z,61.17
2018-11-02T14:02:41.960Z,61.59
2018-11-02T14:05:12.159Z,61.48
2018-11-02T14:07:40.874Z,61.63
2018-11-02T14:10:10.691Z,61.73
2018-11-02T14:12:39.891Z,61.97
2018-11-02T14:15:10.838Z,62.04
2018-11-02T14:17:39.983Z,62.41
2018-11-02T14:20:10.337Z,62.23
2018-11-02T14:22:39.380Z,62.41
2018-11-02T14:25:10.010Z,62.25
2018-11-02T14:27:38.802Z,62.51
2018-11-02T14:30:09.573Z,62.49
2018-11-02T14:32:38.896Z,64.51
2018-11-02T14:35:08.303Z,65.95
2018-11-02T14:37:38.095Z,66.38
2018-11-02T14:40:08.862Z,66.25
2018-11-02T14:42:38.532Z,67.42
2018-11-02T14:45:09.255Z,67.81
2018-11-02T14:47:37.967Z,68.65
2018-11-02T14:50:07.924Z,68.39
2018-11-02T14:52:36.694Z,68.59
2018-11-02T14:55:05.447Z,69.29
2018-11-02T14:57:34.234Z,69.83
2018-11-02T15:00:03.913Z,69.39
2018-11-02T15:02:32.635Z,69.92
2018-11-02T15:05:02.031Z,69.24
2018-11-02T15:07:30.852Z,70.42
2018-11-02T15:09:59.556Z,69.71
2018-11-02T15:12:28.271Z,68.80
2018-11-02T15:14:56.910Z,67.96
2018-11-02T15:17:25.523Z,69.12
2018-11-02T15:19:54.263Z,68.23
2018-11-02T15:22:22.922Z,68.26
2018-11-02T15:24:51.600Z,68.41
2018-11-02T15:27:20.206Z,69.03
2018-11-02T15:29:48.970Z,71.27
2018-11-02T15:32:17.637Z,68.39
2018-11-02T15:34:46.391Z,68.35
2018-11-02T15:37:15.224Z,72.66
2018-11-02T15:39:44.132Z,68.53
2018-11-02T15:42:12.782Z,67.78
2018-11-02T15:44:41.562Z,67.94
2018-11-02T15:47:10.119Z,67.91
2018-11-02T15:49:38.819Z,67.81
2018-11-02T15:52:07.685Z,67.97
2018-11-02T15:54:36.289Z,67.92
2018-11-02T15:57:05.348Z,67.76
2018-11-02T15:59:34.364Z,67.71
2018-11-02T16:02:03.272Z,67.92
2018-11-02T16:04:31.956Z,67.80
2018-11-02T16:07:00.671Z,68.14
2018-11-02T16:09:29.179Z,68.40
2018-11-02T16:11:57.848Z,68.27
2018-11-02T16:14:26.620Z,68.17
2018-11-02T16:16:55.189Z,68.03
2018-11-02T16:19:24.071Z,67.87
2018-11-02T16:21:52.701Z,67.75
2018-11-02T16:24:21.454Z,67.69
2018-11-02T16:26:50.118Z,68.10
2018-11-02T16:29:18.943Z,67.77
2018-11-02T16:31:47.638Z,67.57
2018-11-02T16:34:16.359Z,67.61
2018-11-02T16:36:44.991Z,67.77
2018-11-02T16:39:13.830Z,67.72
2018-11-02T16:41:42.748Z,67.84
2018-11-02T16:44:11.544Z,68.02
2018-11-02T16:46:40.247Z,67.52
2018-11-02T16:49:09.184Z,67.98
2018-11-02T16:51:38.270Z,68.22
2018-11-02T16:54:07.310Z,68.74
2018-11-02T16:56:36.076Z,68.52
2018-11-02T16:59:04.933Z,68.37
2018-11-02T17:01:33.569Z,68.28
2018-11-02T17:04:02.353Z,68.84
2018-11-02T17:06:31.160Z,68.83
2018-11-02T17:08:59.970Z,69.21
2018-11-02T17:11:29.196Z,69.57
2018-11-02T17:13:57.816Z,69.51
2018-11-02T17:16:26.412Z,69.29
2018-11-02T17:18:55.090Z,69.28
2018-11-02T17:21:23.802Z,69.34
2018-11-02T17:23:52.552Z,69.39
2018-11-02T17:26:21.338Z,69.79
2018-11-02T17:28:50.032Z,69.87
2018-11-02T17:31:18.751Z,69.74
2018-11-02T17:33:47.602Z,70.39
2018-11-02T17:36:16.293Z,70.01
2018-11-02T17:38:45.101Z,70.65
2018-11-02T17:41:13.884Z,70.52
2018-11-02T17:43:42.772Z,70.26
2018-11-02T17:46:11.486Z,71.21
2018-11-02T17:48:40.361Z,71.16
2018-11-02T17:51:08.933Z,72.09
2018-11-02T17:53:37.605Z,72.20
2018-11-02T17:56:06.243Z,72.31
2018-11-02T17:58:34.906Z,72.52
2018-11-02T18:01:05.335Z,72.48
2018-11-02T18:03:33.945Z,72.29
2018-11-02T18:06:02.772Z,72.66
2018-11-02T18:08:31.537Z,72.65
2018-11-02T18:11:00.164Z,72.41
2018-11-02T18:13:28.851Z,72.86
2018-11-02T18:15:57.467Z,73.25
2018-11-02T18:18:26.177Z,73.20
2018-11-02T18:20:55.063Z,73.11
2018-11-02T18:23:23.918Z,73.48
2018-11-02T18:25:52.647Z,73.30
2018-11-02T18:28:21.300Z,73.49
2018-11-02T18:30:50.006Z,73.33
2018-11-02T18:33:18.723Z,73.46
2018-11-02T18:35:47.410Z,73.94
2018-11-02T18:38:15.964Z,74.37
2018-11-02T18:40:44.664Z,74.65
2018-11-02T18:43:13.245Z,74.61
2018-11-02T18:45:42.173Z,74.60
2018-11-02T18:48:10.837Z,74.65
2018-11-02T18:50:39.703Z,74.18
2018-11-02T18:53:08.356Z,74.37
2018-11-02T18:55:37.016Z,74.05
2018-11-02T18:58:06.205Z,74.41
2018-11-02T19:00:34.756Z,74.23
2018-11-02T19:03:05.021Z,74.47
2018-11-02T19:05:33.786Z,74.20
2018-11-02T19:08:02.436Z,74.39
2018-11-02T19:10:30.986Z,74.27
2018-11-02T19:12:59.633Z,74.68
2018-11-02T19:15:28.387Z,74.52
2018-11-02T19:17:57.231Z,74.59
2018-11-02T19:20:25.912Z,75.06
2018-11-02T19:22:54.593Z,74.46
2018-11-02T19:25:23.248Z,74.54
2018-11-02T19:27:52.114Z,74.29
2018-11-02T19:30:20.712Z,74.47
2018-11-02T19:32:49.354Z,74.33
2018-11-02T19:35:18.189Z,74.68
2018-11-02T19:37:46.673Z,74.30
2018-11-02T19:40:16.141Z,74.35
2018-11-02T19:42:44.996Z,74.54
2018-11-02T19:45:14.048Z,74.42
2018-11-02T19:47:47.985Z,74.62
2018-11-02T19:50:17.684Z,74.76
2018-11-02T19:52:46.383Z,74.23
2018-11-02T19:55:15.130Z,74.70
2018-11-02T19:57:44.486Z,73.85
2018-11-02T20:00:14.660Z,73.99
2018-11-02T20:02:43.621Z,73.77
2018-11-02T20:05:14.187Z,73.42
2018-11-02T20:07:43.231Z,73.29
2018-11-02T20:10:13.915Z,73.30
2018-11-02T20:12:43.306Z,73.31
2018-11-02T20:15:12.813Z,73.74
2018-11-02T20:17:41.717Z,73.79
2018-11-02T20:20:12.323Z,73.47
2018-11-02T20:22:40.945Z,73.91
2018-11-02T20:25:11.700Z,73.36
2018-11-02T20:27:40.309Z,73.39
2018-11-02T20:30:11.112Z,73.43
2018-11-02T20:32:39.844Z,72.92
2018-11-02T20:35:08.834Z,72.91
2018-11-02T20:37:38.173Z,72.74
2018-11-02T20:40:09.044Z,72.49
2018-11-02T20:42:37.564Z,73.07
2018-11-02T20:45:06.791Z,73.05
2018-11-02T20:47:40.798Z,73.17
2018-11-02T20:50:10.534Z,72.90
2018-11-02T20:52:39.387Z,72.49
2018-11-02T20:55:09.511Z,72.38
2018-11-02T20:57:39.238Z,72.58
2018-11-02T21:00:11.133Z,72.12
2018-11-02T21:02:40.595Z,72.26
2018-11-02T21:05:11.199Z,71.82
2018-11-02T21:07:39.850Z,72.77
2018-11-02T21:10:11.184Z,72.57
2018-11-02T21:12:39.859Z,73.04
2018-11-02T21:15:10.772Z,73.14
2018-11-02T21:17:39.818Z,72.77
2018-11-02T21:20:11.482Z,73.03
2018-11-02T21:22:40.460Z,72.41
2018-11-02T21:25:09.708Z,72.92
2018-11-02T21:27:38.357Z,72.95
2018-11-02T21:30:10.739Z,72.98
2018-11-02T21:32:39.524Z,72.86
2018-11-02T21:35:08.534Z,72.33
2018-11-02T21:37:37.300Z,72.93
2018-11-02T21:40:07.452Z,73.32
2018-11-02T21:42:36.199Z,73.09
2018-11-02T21:45:04.979Z,73.49
2018-11-02T21:47:34.044Z,73.52
2018-11-02T21:50:03.665Z,73.58
2018-11-02T21:52:32.367Z,73.48
2018-11-02T21:55:00.897Z,73.60
2018-11-02T21:57:29.514Z,73.97
2018-11-02T21:59:58.274Z,73.72
2018-11-02T22:02:26.873Z,74.06
2018-11-02T22:04:55.528Z,73.66
2018-11-02T22:07:24.390Z,73.62
2018-11-02T22:09:53.012Z,73.14
2018-11-02T22:12:21.765Z,74.09
2018-11-02T22:14:50.476Z,73.45
2018-11-02T22:17:19.269Z,73.25
2018-11-02T22:19:47.883Z,73.43
2018-11-02T22:22:16.568Z,72.78
2018-11-02T22:24:45.365Z,72.57
2018-11-02T22:27:13.996Z,72.71
2018-11-02T22:29:42.648Z,72.96
2018-11-02T22:32:11.446Z,72.41
2018-11-02T22:34:40.097Z,72.96
2018-11-02T22:37:08.823Z,71.96
2018-11-02T22:39:37.497Z,72.23
2018-11-02T22:42:06.517Z,72.37
2018-11-02T22:44:35.224Z,72.31
2018-11-02T22:47:03.951Z,72.05
2018-11-02T22:49:32.653Z,71.27
2018-11-02T22:52:01.503Z,71.98
2018-11-02T22:54:30.322Z,72.01
2018-11-02T22:56:58.951Z,72.62
2018-11-02T22:59:27.598Z,72.73
2018-11-02T23:01:56.371Z,72.53
2018-11-02T23:04:25.002Z,73.16
2018-11-02T23:06:53.704Z,72.62
2018-11-02T23:09:22.433Z,72.47
2018-11-02T23:11:50.995Z,73.02
2018-11-02T23:14:19.642Z,73.02
2018-11-02T23:16:48.243Z,73.46
2018-11-02T23:19:16.999Z,73.49
2018-11-02T23:21:45.642Z,73.05
2018-11-02T23:24:14.346Z,72.42
2018-11-02T23:26:42.929Z,72.34
2018-11-02T23:29:11.816Z,72.38
2018-11-02T23:31:40.441Z,72.28
2018-11-02T23:34:09.116Z,72.30
2018-11-02T23:36:38.061Z,72.08
2018-11-02T23:39:07.790Z,72.46
2018-11-02T23:41:36.509Z,72.56
2018-11-02T23:44:07.728Z,73.61
2018-11-02T23:46:36.328Z,73.32
2018-11-02T23:49:05.201Z,73.54
2018-11-02T23:51:33.990Z,73.27
2018-11-02T23:54:02.724Z,73.77
2018-11-02T23:56:31.345Z,72.96
2018-11-02T23:59:00.083Z,72.74
